Time;durP1;ratioP1;P1;durP2;ratioP2;P2;SDS_P1;SDS_P2;PMS_P1;PMS_P2;Temp;Humidity;BMP_temperature;BMP_pressure;BME280_temperature;BME280_humidity;BME280_pressure;Samples;Min_cycle;Max_cycle;Signal;HPM_P1;HPM_P2
2023/11/22 00:00:28;;;;;;;8.00;6.67;;;6.80;99.90;;;;;;5031352;28;20178;-66
2023/11/22 00:02:54;;;;;;;6.20;5.60;;;6.90;99.90;;;;;;5030733;28;20188;-68
2023/11/22 00:05:19;;;;;;;8.83;6.60;;;6.90;99.90;;;;;;5031652;28;20186;-67
2023/11/22 00:07:45;;;;;;;8.17;7.07;;;6.90;99.90;;;;;;5030288;28;20225;-67
2023/11/22 00:10:11;;;;;;;9.00;6.70;;;6.90;99.90;;;;;;5032697;28;20193;-68
2023/11/22 00:12:38;;;;;;;6.87;6.17;;;6.80;99.90;;;;;;5030285;28;20454;-68
2023/11/22 00:15:07;;;;;;;8.30;6.50;;;6.80;99.90;;;;;;5031688;28;20313;-68
2023/11/22 00:17:36;;;;;;;7.37;6.20;;;6.80;99.90;;;;;;5030474;28;20463;-67
2023/11/22 00:20:05;;;;;;;6.90;6.20;;;6.80;99.90;;;;;;5030921;28;20433;-67
2023/11/22 00:22:32;;;;;;;7.07;6.17;;;6.80;99.90;;;;;;5030688;28;20441;-67
2023/11/22 00:24:58;;;;;;;7.23;6.27;;;7.00;99.90;;;;;;5030445;28;21733;-67
2023/11/22 00:27:24;;;;;;;6.63;5.77;;;6.90;99.90;;;;;;5031690;28;20417;-67
2023/11/22 00:29:50;;;;;;;6.50;5.90;;;6.90;99.90;;;;;;5030743;28;20503;-68
2023/11/22 00:32:16;;;;;;;9.27;7.30;;;6.90;99.90;;;;;;5032081;28;20420;-67
2023/11/22 00:34:42;;;;;;;9.53;6.57;;;6.80;99.90;;;;;;5029175;28;20241;-67
2023/11/22 00:37:07;;;;;;;10.00;6.87;;;6.80;99.90;;;;;;5031817;28;20704;-68
2023/11/22 00:39:33;;;;;;;8.00;6.33;;;6.90;99.90;;;;;;5045124;28;20185;-67
2023/11/22 00:41:58;;;;;;;6.63;5.97;;;6.80;99.90;;;;;;5030674;28;20284;-67
2023/11/22 00:44:24;;;;;;;7.43;6.60;;;7.00;99.90;;;;;;5031181;28;20683;-68
2023/11/22 00:46:50;;;;;;;9.03;6.73;;;6.90;99.90;;;;;;5029148;28;20368;-69
2023/11/22 00:49:15;;;;;;;7.83;6.80;;;6.90;99.90;;;;;;5015032;28;20186;-67
2023/11/22 00:51:42;;;;;;;6.90;6.20;;;6.90;99.90;;;;;;5029639;28;20242;-68
2023/11/22 00:54:07;;;;;;;7.67;6.70;;;6.80;99.90;;;;;;5031000;28;20256;-68
2023/11/22 00:56:33;;;;;;;8.53;6.57;;;6.80;99.90;;;;;;5043739;28;20428;-67
2023/11/22 00:58:59;;;;;;;8.57;6.63;;;6.80;99.90;;;;;;5031427;28;20188;-68
2023/11/22 01:01:26;;;;;;;10.43;8.60;;;6.70;99.90;;;;;;5031354;28;20209;-67
2023/11/22 01:03:52;;;;;;;8.50;7.27;;;6.70;99.90;;;;;;5028300;28;20974;-67
2023/11/22 01:06:18;;;;;;;8.00;6.80;;;6.60;99.90;;;;;;5030797;28;20441;-67
2023/11/22 01:08:43;;;;;;;9.10;7.97;;;6.60;99.90;;;;;;5027974;28;20946;-67
2023/11/22 01:11:09;;;;;;;8.40;7.60;;;6.60;99.90;;;;;;5031196;28;20919;-67
2023/11/22 01:13:40;;;;;;;7.87;6.50;;;6.60;99.90;;;;;;5030066;28;20926;-66
2023/11/22 01:16:07;;;;;;;9.27;7.77;;;6.60;99.90;;;;;;5030928;28;20767;-66
2023/11/22 01:18:32;;;;;;;8.17;6.67;;;6.60;99.90;;;;;;5045658;28;20456;-68
2023/11/22 01:20:58;;;;;;;9.03;8.00;;;6.60;99.90;;;;;;5030277;28;20583;-67
2023/11/22 01:23:24;;;;;;;8.73;6.93;;;6.50;99.90;;;;;;5030152;28;20177;-67
2023/11/22 01:25:50;;;;;;;8.87;7.53;;;6.50;99.90;;;;;;5043322;28;20188;-67
2023/11/22 01:28:17;;;;;;;9.37;7.70;;;6.60;99.90;;;;;;5030805;28;20193;-66
2023/11/22 01:30:45;;;;;;;8.77;7.50;;;6.50;99.90;;;;;;5026833;28;20482;-67
2023/11/22 01:33:12;;;;;;;8.20;7.30;;;6.60;99.90;;;;;;5030773;28;20429;-67
2023/11/22 01:35:38;;;;;;;9.40;7.87;;;6.60;99.90;;;;;;5028799;28;20471;-68
2023/11/22 01:38:04;;;;;;;10.67;8.23;;;6.60;99.90;;;;;;5031902;28;21002;-67
2023/11/22 01:40:31;;;;;;;11.57;9.23;;;6.60;99.90;;;;;;5029147;28;20495;-67
2023/11/22 01:42:58;;;;;;;9.50;7.70;;;6.60;99.90;;;;;;5029081;28;20428;-67
2023/11/22 01:45:23;;;;;;;9.03;7.00;;;6.60;99.90;;;;;;5029712;28;20424;-68
2023/11/22 01:47:50;;;;;;;10.93;7.90;;;6.60;99.90;;;;;;5029440;28;20776;-68
2023/11/22 01:50:16;;;;;;;10.13;7.70;;;6.60;99.90;;;;;;5030984;28;20185;-67
2023/11/22 01:52:42;;;;;;;11.50;8.53;;;6.60;99.90;;;;;;5042712;28;20428;-67
2023/11/22 01:55:09;;;;;;;8.57;7.70;;;6.70;99.90;;;;;;5030317;28;21645;-67
2023/11/22 01:57:35;;;;;;;9.07;7.47;;;6.70;99.90;;;;;;5044505;28;20847;-67
2023/11/22 02:00:03;;;;;;;8.97;7.60;;;6.50;99.90;;;;;;5029651;28;20547;-68
2023/11/22 02:02:30;;;;;;;9.07;7.60;;;6.50;99.90;;;;;;5031055;28;20482;-67
2023/11/22 02:04:56;;;;;;;9.60;6.93;;;6.60;99.90;;;;;;5029237;28;20432;-66
2023/11/22 02:07:22;;;;;;;11.43;8.33;;;6.50;99.90;;;;;;5030729;28;20444;-67
2023/11/22 02:09:49;;;;;;;13.73;7.93;;;6.50;99.90;;;;;;5030013;28;20237;-67
2023/11/22 02:12:15;;;;;;;9.67;7.70;;;6.50;99.90;;;;;;5033087;28;21040;-67
2023/11/22 02:14:40;;;;;;;12.33;8.80;;;6.50;99.90;;;;;;5027930;28;20552;-67
2023/11/22 02:17:06;;;;;;;10.10;8.10;;;6.50;99.90;;;;;;5030097;28;20240;-67
2023/11/22 02:19:32;;;;;;;12.83;9.63;;;6.50;99.90;;;;;;5029719;28;20813;-68
2023/11/22 02:21:59;;;;;;;11.00;8.47;;;6.50;99.90;;;;;;5029740;28;20283;-67
2023/11/22 02:24:26;;;;;;;9.60;7.83;;;6.40;99.90;;;;;;5029501;28;20495;-68
2023/11/22 02:26:52;;;;;;;10.23;8.43;;;6.50;99.90;;;;;;5028291;28;20472;-68
2023/11/22 02:29:17;;;;;;;13.50;9.70;;;6.50;99.90;;;;;;5030542;28;21007;-67
2023/11/22 02:31:44;;;;;;;10.20;7.80;;;6.60;99.90;;;;;;5041504;28;20189;-67
2023/11/22 02:34:10;;;;;;;10.30;8.63;;;6.70;99.90;;;;;;5028374;28;20217;-67
2023/11/22 02:36:35;;;;;;;11.23;8.50;;;6.60;99.90;;;;;;5029228;28;20429;-68
2023/11/22 02:39:01;;;;;;;10.40;8.80;;;6.60;99.90;;;;;;5016978;28;20424;-67
2023/11/22 02:41:29;;;;;;;11.77;9.00;;;6.60;99.90;;;;;;5030121;28;20548;-67
2023/11/22 02:43:56;;;;;;;11.97;8.90;;;6.60;99.90;;;;;;5027864;28;20188;-68
2023/11/22 02:46:22;;;;;;;11.10;8.37;;;6.50;99.90;;;;;;5034040;28;20437;-67
2023/11/22 02:48:47;;;;;;;9.17;7.30;;;6.40;99.90;;;;;;5030662;28;20427;-68
2023/11/22 02:51:13;;;;;;;8.23;7.43;;;6.40;99.90;;;;;;5032325;28;20525;-67
2023/11/22 02:53:43;;;;;;;8.57;7.30;;;6.50;99.90;;;;;;5031544;28;20174;-68
2023/11/22 02:56:10;;;;;;;9.40;7.23;;;6.50;99.90;;;;;;5032129;28;20456;-68
2023/11/22 02:58:36;;;;;;;15.40;7.43;;;6.60;99.90;;;;;;5032491;28;20992;-67
2023/11/22 03:01:01;;;;;;;10.10;7.80;;;6.60;99.90;;;;;;5032034;28;20425;-68
2023/11/22 03:03:28;;;;;;;10.17;7.53;;;6.50;99.90;;;;;;5031263;28;20249;-68
2023/11/22 03:05:54;;;;;;;11.70;7.57;;;6.40;99.90;;;;;;5031327;28;20668;-67
2023/11/22 03:08:20;;;;;;;8.60;6.90;;;6.40;99.90;;;;;;5031573;28;20429;-66
2023/11/22 03:10:46;;;;;;;9.50;7.43;;;6.30;99.90;;;;;;5032399;28;20775;-66
2023/11/22 03:13:12;;;;;;;8.33;6.73;;;6.40;99.90;;;;;;5030394;28;20209;-67
2023/11/22 03:15:38;;;;;;;8.70;6.53;;;6.40;99.90;;;;;;5031736;28;20252;-67
2023/11/22 03:18:06;;;;;;;7.23;6.20;;;6.30;99.90;;;;;;5031979;28;20531;-68
2023/11/22 03:20:32;;;;;;;7.90;6.40;;;6.30;99.90;;;;;;5038435;28;20584;-67
2023/11/22 03:22:58;;;;;;;11.33;6.30;;;6.30;99.90;;;;;;5032188;28;20459;-67
2023/11/22 03:25:24;;;;;;;9.73;6.80;;;6.20;99.90;;;;;;5032039;28;20627;-66
2023/11/22 03:27:50;;;;;;;7.23;6.43;;;6.20;99.90;;;;;;5046915;28;20429;-67
2023/11/22 03:30:15;;;;;;;8.43;6.90;;;6.20;99.90;;;;;;5031778;28;20460;-67
2023/11/22 03:32:42;;;;;;;8.60;6.40;;;6.20;99.90;;;;;;5032527;28;20538;-67
2023/11/22 03:35:08;;;;;;;8.27;6.27;;;6.20;99.90;;;;;;5030952;28;20226;-67
2023/11/22 03:37:34;;;;;;;7.80;6.20;;;6.30;99.90;;;;;;5032823;28;21307;-65
2023/11/22 03:40:00;;;;;;;7.37;5.87;;;6.30;99.90;;;;;;5031686;28;20441;-67
2023/11/22 03:42:26;;;;;;;6.53;5.50;;;6.30;99.90;;;;;;5032253;28;20691;-67
2023/11/22 03:44:56;;;;;;;6.90;5.50;;;6.20;99.90;;;;;;5030626;28;20836;-67
2023/11/22 03:47:22;;;;;;;8.10;5.63;;;6.10;99.90;;;;;;5031967;28;20549;-67
2023/11/22 03:49:48;;;;;;;6.87;5.23;;;6.10;99.90;;;;;;5031877;28;20428;-67
2023/11/22 03:52:14;;;;;;;10.07;5.70;;;5.90;99.90;;;;;;5031601;28;20682;-66
2023/11/22 03:54:40;;;;;;;7.90;5.83;;;5.90;99.90;;;;;;5029879;28;20527;-66
2023/11/22 03:57:05;;;;;;;8.13;6.30;;;5.80;99.90;;;;;;5053343;28;20260;-67
2023/11/22 03:59:31;;;;;;;7.43;5.77;;;5.70;99.90;;;;;;5031868;28;20186;-67
2023/11/22 04:01:57;;;;;;;8.03;5.77;;;5.70;99.90;;;;;;5031240;28;20185;-67
2023/11/22 04:04:23;;;;;;;7.30;5.60;;;5.70;99.90;;;;;;5030530;28;20715;-67
2023/11/22 04:06:50;;;;;;;6.53;5.10;;;5.60;99.90;;;;;;5031031;28;20213;-67
2023/11/22 04:09:18;;;;;;;6.27;4.83;;;5.60;99.90;;;;;;5031877;28;20439;-67
2023/11/22 04:11:44;;;;;;;5.87;5.27;;;5.50;99.90;;;;;;5031045;28;20499;-66
2023/11/22 04:14:10;;;;;;;6.40;5.17;;;5.40;99.90;;;;;;5028688;28;21450;-66
2023/11/22 04:16:36;;;;;;;6.50;5.50;;;5.50;99.90;;;;;;5030975;28;20178;-67
2023/11/22 04:19:01;;;;;;;6.80;5.40;;;5.50;99.90;;;;;;5031080;28;20192;-67
2023/11/22 04:21:27;;;;;;;7.07;5.93;;;5.40;99.90;;;;;;5032627;28;20864;-66
2023/11/22 04:23:53;;;;;;;6.60;5.17;;;5.30;99.90;;;;;;5029768;28;20561;-67
2023/11/22 04:26:20;;;;;;;5.63;5.00;;;5.30;99.90;;;;;;5030013;28;20672;-66
2023/11/22 04:28:46;;;;;;;8.80;5.40;;;5.30;99.90;;;;;;5030950;28;20360;-67
2023/11/22 04:31:12;;;;;;;9.13;5.57;;;5.20;99.90;;;;;;5030367;28;20491;-67
2023/11/22 04:33:38;;;;;;;5.83;4.70;;;5.20;99.90;;;;;;5030599;28;20192;-66
2023/11/22 04:36:04;;;;;;;7.17;5.43;;;5.20;99.90;;;;;;5030713;28;20441;-67
2023/11/22 04:38:29;;;;;;;5.60;4.60;;;5.20;99.90;;;;;;5031510;28;20182;-67
2023/11/22 04:40:55;;;;;;;6.87;4.93;;;5.10;99.90;;;;;;5030334;28;20687;-67
2023/11/22 04:43:21;;;;;;;6.83;5.63;;;5.10;99.90;;;;;;5030750;28;20221;-66
2023/11/22 04:45:47;;;;;;;7.27;5.00;;;5.10;99.90;;;;;;5030453;28;20367;-66
2023/11/22 04:48:15;;;;;;;7.30;5.17;;;5.10;99.90;;;;;;5030566;28;20208;-67
2023/11/22 04:50:42;;;;;;;6.67;5.07;;;5.10;99.90;;;;;;5031000;28;21096;-66
2023/11/22 04:53:08;;;;;;;6.93;4.90;;;5.10;99.90;;;;;;5029779;28;20531;-67
2023/11/22 04:55:34;;;;;;;7.00;5.67;;;5.20;99.90;;;;;;5031112;28;20476;-66
2023/11/22 04:58:00;;;;;;;4.90;4.03;;;5.20;99.90;;;;;;5031081;28;20425;-67
2023/11/22 05:00:25;;;;;;;6.53;4.93;;;5.20;99.90;;;;;;5045488;28;20232;-66
2023/11/22 05:02:51;;;;;;;6.80;5.03;;;5.10;99.90;;;;;;5030552;28;20209;-66
2023/11/22 05:05:17;;;;;;;5.87;4.77;;;5.10;99.90;;;;;;5029824;28;20188;-67
2023/11/22 05:07:44;;;;;;;6.80;4.40;;;5.00;99.90;;;;;;5035800;28;20214;-66
2023/11/22 05:10:10;;;;;;;6.00;4.60;;;4.90;99.90;;;;;;5031371;28;20719;-67
2023/11/22 05:12:36;;;;;;;7.67;4.73;;;4.90;99.90;;;;;;5033813;28;20824;-66
2023/11/22 05:15:02;;;;;;;8.23;5.23;;;4.70;99.90;;;;;;5030155;28;20261;-67
2023/11/22 05:17:28;;;;;;;6.27;5.00;;;4.60;99.90;;;;;;5030440;28;20182;-67
2023/11/22 05:19:53;;;;;;;8.20;4.93;;;4.50;99.90;;;;;;5030592;28;21016;-66
2023/11/22 05:22:19;;;;;;;8.07;5.40;;;4.50;99.90;;;;;;5030934;28;20193;-67
2023/11/22 05:24:45;;;;;;;6.13;5.53;;;4.40;99.90;;;;;;5028759;28;20703;-66
2023/11/22 05:27:10;;;;;;;6.17;4.70;;;4.40;99.90;;;;;;5029775;28;20653;-66
2023/11/22 05:29:36;;;;;;;4.47;4.07;;;4.50;99.90;;;;;;5030213;28;20232;-66
2023/11/22 05:32:03;;;;;;;5.40;4.50;;;4.40;99.90;;;;;;5030221;28;20186;-66
2023/11/22 05:34:29;;;;;;;7.60;5.10;;;4.40;99.90;;;;;;5028707;28;20467;-67
2023/11/22 05:36:55;;;;;;;6.53;4.60;;;4.50;99.90;;;;;;5029804;28;20520;-67
2023/11/22 05:39:24;;;;;;;6.30;4.50;;;4.50;99.90;;;;;;5030261;28;20433;-66
2023/11/22 05:41:50;;;;;;;5.97;4.60;;;4.50;99.90;;;;;;5034988;28;20520;-66
2023/11/22 05:44:16;;;;;;;5.57;4.63;;;4.60;99.90;;;;;;5028684;28;20431;-67
2023/11/22 05:46:42;;;;;;;6.53;5.77;;;4.60;99.90;;;;;;5029341;28;21050;-66
2023/11/22 05:49:08;;;;;;;6.50;4.40;;;4.60;99.90;;;;;;5030943;28;20221;-67
2023/11/22 05:51:34;;;;;;;6.90;5.27;;;4.60;99.90;;;;;;5031073;28;20722;-66
2023/11/22 05:54:00;;;;;;;6.20;4.80;;;4.60;99.90;;;;;;5029237;28;20463;-67
2023/11/22 05:56:26;;;;;;;5.77;4.77;;;4.70;99.90;;;;;;5028899;28;20184;-67
2023/11/22 05:58:51;;;;;;;5.07;4.30;;;4.70;99.90;;;;;;5030957;28;20780;-66
2023/11/22 06:01:17;;;;;;;5.90;4.87;;;4.60;99.90;;;;;;5028580;28;20190;-67
2023/11/22 06:03:43;;;;;;;5.60;5.07;;;4.60;99.90;;;;;;5028902;28;20306;-67
2023/11/22 06:06:08;;;;;;;6.90;4.80;;;4.60;99.90;;;;;;5029212;28;20198;-67
2023/11/22 06:08:34;;;;;;;6.83;4.37;;;4.50;99.90;;;;;;5044586;28;20182;-67
2023/11/22 06:11:00;;;;;;;6.70;4.70;;;4.50;99.90;;;;;;5029606;28;20178;-67
2023/11/22 06:13:27;;;;;;;7.67;4.93;;;4.50;99.90;;;;;;5027998;28;20185;-67
2023/11/22 06:15:53;;;;;;;7.53;5.13;;;4.50;99.90;;;;;;5029194;28;20610;-66
2023/11/22 06:18:18;;;;;;;5.60;4.30;;;4.50;99.90;;;;;;5029137;28;20432;-66
2023/11/22 06:20:45;;;;;;;5.33;4.60;;;4.50;99.90;;;;;;5029772;28;20917;-67
2023/11/22 06:23:11;;;;;;;5.93;4.80;;;4.50;99.90;;;;;;5029172;28;20222;-66
2023/11/22 06:25:37;;;;;;;5.43;4.80;;;4.60;99.90;;;;;;5028647;28;20525;-66
2023/11/22 06:28:03;;;;;;;6.23;4.73;;;4.50;99.90;;;;;;5034133;28;20201;-67
2023/11/22 06:30:30;;;;;;;5.50;5.00;;;4.50;99.90;;;;;;5012551;28;20193;-66
2023/11/22 06:32:56;;;;;;;5.43;4.83;;;4.50;99.90;;;;;;5029762;28;20539;-67
2023/11/22 06:35:22;;;;;;;6.47;4.63;;;4.30;99.90;;;;;;5030076;28;20468;-67
2023/11/22 06:37:48;;;;;;;6.10;5.30;;;4.30;99.90;;;;;;5029270;28;20436;-67
2023/11/22 06:40:14;;;;;;;6.87;5.13;;;4.30;99.90;;;;;;5028427;28;20467;-66
2023/11/22 06:42:41;;;;;;;8.07;6.47;;;4.40;99.90;;;;;;5029699;28;20416;-67
2023/11/22 06:45:09;;;;;;;7.07;6.30;;;4.40;99.90;;;;;;5029097;28;20965;-67
2023/11/22 06:47:44;;;;;;;9.03;7.00;;;4.30;99.90;;;;;;5041329;28;20483;-66
2023/11/22 06:50:11;;;;;;;9.13;7.47;;;4.30;99.90;;;;;;5042148;28;21090;-67
2023/11/22 06:52:41;;;;;;;7.33;5.53;;;4.20;99.90;;;;;;5029180;28;20817;-66
2023/11/22 06:55:08;;;;;;;8.60;6.70;;;4.20;99.90;;;;;;5028910;28;20467;-67
2023/11/22 06:57:34;;;;;;;9.13;6.40;;;4.20;99.90;;;;;;5044813;28;20803;-67
2023/11/22 07:00:04;;;;;;;9.97;7.27;;;4.20;99.90;;;;;;5029743;28;20428;-67
2023/11/22 07:02:35;;;;;;;8.97;6.77;;;4.10;99.90;;;;;;5028865;28;20429;-66
2023/11/22 07:05:01;;;;;;;9.93;6.67;;;4.10;99.90;;;;;;5028831;28;20518;-67
2023/11/22 07:07:27;;;;;;;9.63;6.57;;;4.10;99.90;;;;;;5029316;28;20777;-66
2023/11/22 07:09:53;;;;;;;7.10;5.30;;;4.10;99.90;;;;;;5044172;28;20435;-67
2023/11/22 07:12:22;;;;;;;7.10;6.00;;;4.10;99.90;;;;;;5029416;28;20424;-67
2023/11/22 07:14:49;;;;;;;8.47;5.33;;;4.00;99.90;;;;;;5026658;28;20255;-67
2023/11/22 07:17:17;;;;;;;7.07;5.97;;;4.00;99.90;;;;;;5028589;28;20966;-66
2023/11/22 07:19:46;;;;;;;6.70;5.60;;;4.00;99.90;;;;;;5028880;28;20430;-67
2023/11/22 07:22:22;;;;;;;6.67;5.80;;;4.00;99.90;;;;;;5030662;28;20428;-67
2023/11/22 07:24:54;;;;;;;9.10;5.70;;;3.80;99.90;;;;;;5027545;28;20795;-67
2023/11/22 07:27:20;;;;;;;5.77;4.93;;;3.70;99.90;;;;;;5028991;28;20604;-66
2023/11/22 07:29:46;;;;;;;6.50;5.03;;;3.60;99.90;;;;;;5025177;28;20554;-66
2023/11/22 07:32:12;;;;;;;6.30;5.33;;;3.60;99.90;;;;;;5028594;28;20528;-67
2023/11/22 07:34:40;;;;;;;6.30;5.30;;;3.50;99.90;;;;;;5028644;28;20460;-67
2023/11/22 07:37:07;;;;;;;5.97;5.20;;;3.50;99.90;;;;;;5032205;28;20437;-68
2023/11/22 07:39:35;;;;;;;6.60;4.90;;;3.40;99.90;;;;;;5032863;28;20460;-68
2023/11/22 07:42:01;;;;;;;8.80;6.00;;;3.40;99.90;;;;;;5032539;28;20497;-67
2023/11/22 07:44:27;;;;;;;7.83;5.77;;;3.50;99.90;;;;;;5032004;28;21023;-67
2023/11/22 07:46:53;;;;;;;6.83;5.23;;;3.60;99.90;;;;;;5032950;28;20434;-68
2023/11/22 07:49:22;;;;;;;8.90;6.07;;;3.70;99.90;;;;;;5035964;28;20190;-68
2023/11/22 07:51:51;;;;;;;7.00;5.40;;;3.80;99.90;;;;;;5032827;28;20551;-68
2023/11/22 07:54:22;;;;;;;8.37;6.40;;;3.80;99.90;;;;;;5032259;28;20464;-68
2023/11/22 07:56:48;;;;;;;6.37;5.33;;;3.90;99.90;;;;;;5032841;28;21022;-68
2023/11/22 07:59:15;;;;;;;8.03;5.30;;;4.10;99.90;;;;;;5032222;28;20437;-69
2023/11/22 08:01:44;;;;;;;8.37;6.40;;;4.40;99.90;;;;;;5031838;28;20505;-68
2023/11/22 08:04:09;;;;;;;6.73;5.90;;;4.70;99.90;;;;;;5031724;28;20450;-67
2023/11/22 08:06:35;;;;;;;6.80;5.90;;;4.90;99.90;;;;;;5031752;28;20512;-68
2023/11/22 08:09:01;;;;;;;7.53;5.13;;;5.10;99.90;;;;;;5033195;28;20277;-69
2023/11/22 08:11:28;;;;;;;5.40;4.80;;;5.20;99.90;;;;;;5031117;28;20835;-69
2023/11/22 08:13:58;;;;;;;6.10;4.77;;;5.40;99.90;;;;;;5003186;28;20725;-68
2023/11/22 08:16:28;;;;;;;6.17;4.90;;;5.50;99.90;;;;;;5031304;28;20425;-69
2023/11/22 08:18:54;;;;;;;6.60;4.73;;;5.80;99.90;;;;;;5030979;28;20431;-69
2023/11/22 08:21:20;;;;;;;7.17;5.03;;;6.10;99.90;;;;;;5031867;28;20421;-69
2023/11/22 08:23:46;;;;;;;6.97;5.63;;;6.30;99.90;;;;;;5031285;28;20427;-69
2023/11/22 08:26:14;;;;;;;6.27;4.90;;;6.50;99.90;;;;;;5031878;28;20243;-69
2023/11/22 08:28:40;;;;;;;8.23;5.70;;;6.70;99.90;;;;;;5031924;28;20436;-69
2023/11/22 08:31:11;;;;;;;8.93;6.00;;;6.80;99.90;;;;;;5031931;28;20986;-68
2023/11/22 08:33:38;;;;;;;9.40;5.30;;;7.00;99.90;;;;;;5032024;28;20473;-69
2023/11/22 08:36:08;;;;;;;9.00;6.63;;;7.10;99.90;;;;;;5031615;28;20491;-69
2023/11/22 08:38:44;;;;;;;10.70;6.63;;;7.20;99.90;;;;;;5031419;28;20430;-69
2023/11/22 08:41:13;;;;;;;6.53;5.57;;;7.40;99.90;;;;;;5031487;28;20456;-68
2023/11/22 08:43:40;;;;;;;10.40;5.63;;;7.50;99.90;;;;;;5030783;28;20433;-68
2023/11/22 08:46:06;;;;;;;6.10;5.27;;;7.60;99.90;;;;;;5030202;28;20432;-68
2023/11/22 08:48:33;;;;;;;11.30;5.53;;;7.70;99.90;;;;;;5032291;28;20452;-68
2023/11/22 08:51:01;;;;;;;9.33;4.83;;;7.80;99.90;;;;;;5031391;28;20486;-68
2023/11/22 08:53:26;;;;;;;5.07;3.97;;;7.80;99.90;;;;;;5030865;28;21164;-68
2023/11/22 08:55:55;;;;;;;4.60;3.80;;;8.00;99.90;;;;;;5031774;28;20809;-66
2023/11/22 08:58:21;;;;;;;5.13;4.03;;;8.30;99.90;;;;;;5031159;28;20760;-68
2023/11/22 09:00:46;;;;;;;6.50;5.20;;;8.50;99.90;;;;;;5031951;28;20428;-68
2023/11/22 09:03:12;;;;;;;6.00;4.50;;;8.70;99.90;;;;;;5029551;28;20437;-68
2023/11/22 09:05:42;;;;;;;6.37;4.63;;;8.70;99.90;;;;;;5030467;28;20849;-68
2023/11/22 09:08:15;;;;;;;5.40;4.70;;;8.80;99.90;;;;;;5030867;28;20436;-68
2023/11/22 09:10:44;;;;;;;7.00;4.70;;;9.00;99.90;;;;;;5032180;28;20942;-68
2023/11/22 09:13:10;;;;;;;5.20;4.60;;;9.20;99.90;;;;;;5049742;28;20441;-68
2023/11/22 09:15:38;;;;;;;4.90;4.10;;;9.20;99.90;;;;;;5030565;28;20471;-68
2023/11/22 09:18:04;;;;;;;6.50;4.80;;;9.30;99.90;;;;;;5030789;28;20918;-69
2023/11/22 09:20:30;;;;;;;7.73;4.50;;;9.40;99.90;;;;;;5035430;28;20429;-68
2023/11/22 09:22:56;;;;;;;4.20;3.77;;;9.50;99.90;;;;;;5030261;28;20443;-68
2023/11/22 09:25:23;;;;;;;4.60;3.50;;;9.60;99.90;;;;;;5029303;28;20425;-69
2023/11/22 09:27:51;;;;;;;4.43;3.10;;;9.60;99.90;;;;;;5031208;28;20189;-69
2023/11/22 09:31:05;;;;;;;4.70;3.17;;;9.60;99.90;;;;;;5029302;28;21067;-68
2023/11/22 09:33:23;;;;;;;5.83;3.30;;;9.60;99.90;;;;;;5030311;28;20961;-68
2023/11/22 09:35:50;;;;;;;3.60;3.27;;;9.40;99.90;;;;;;5030429;28;20591;-68
2023/11/22 09:38:16;;;;;;;3.40;3.07;;;9.20;99.90;;;;;;5031046;28;20520;-68
2023/11/22 09:40:46;;;;;;;4.30;3.87;;;9.10;99.90;;;;;;5042808;28;20890;-68
2023/11/22 09:43:17;;;;;;;4.70;3.63;;;8.90;99.90;;;;;;5029808;28;20802;-68
2023/11/22 09:45:49;;;;;;;4.17;3.77;;;8.80;99.90;;;;;;5031257;28;20432;-68
2023/11/22 09:48:17;;;;;;;4.20;3.30;;;8.70;99.90;;;;;;5028845;28;20432;-69
2023/11/22 09:51:07;;;;;;;4.70;3.77;;;8.60;99.90;;;;;;5045275;28;20788;-68
2023/11/22 09:53:36;;;;;;;3.90;3.20;;;8.30;99.90;;;;;;5030669;28;20487;-69
2023/11/22 09:56:04;;;;;;;4.80;3.60;;;8.10;99.90;;;;;;5029468;28;20487;-68
2023/11/22 09:58:34;;;;;;;3.90;3.60;;;8.00;99.90;;;;;;5030696;28;20805;-68
2023/11/22 10:01:01;;;;;;;4.17;3.60;;;7.90;99.90;;;;;;5030081;28;20432;-68
2023/11/22 10:03:30;;;;;;;4.20;3.17;;;7.70;99.90;;;;;;5029467;28;20429;-68
2023/11/22 10:05:59;;;;;;;4.10;3.60;;;7.70;99.90;;;;;;5028666;28;20944;-69
2023/11/22 10:08:29;;;;;;;3.73;3.37;;;7.60;99.90;;;;;;5028714;28;20429;-68
2023/11/22 10:10:55;;;;;;;4.13;3.40;;;7.50;99.90;;;;;;5029316;28;20432;-68
2023/11/22 10:13:22;;;;;;;3.97;3.57;;;7.40;99.90;;;;;;5027358;28;20467;-68
2023/11/22 10:15:48;;;;;;;5.10;3.80;;;7.40;99.90;;;;;;5028903;28;20598;-68
2023/11/22 10:18:14;;;;;;;4.93;4.13;;;7.30;99.90;;;;;;5029165;28;20474;-69
2023/11/22 10:20:41;;;;;;;3.17;2.87;;;7.40;99.90;;;;;;5028957;28;20432;-68
2023/11/22 10:23:13;;;;;;;4.43;3.10;;;7.30;99.90;;;;;;5028250;28;20181;-68
2023/11/22 10:25:51;;;;;;;4.43;3.43;;;7.10;99.90;;;;;;5028783;28;20439;-69
2023/11/22 10:28:20;;;;;;;3.93;3.30;;;7.00;99.90;;;;;;5029519;28;20524;-68
2023/11/22 10:30:47;;;;;;;3.30;3.00;;;6.90;99.90;;;;;;5028653;28;20455;-68
2023/11/22 10:33:15;;;;;;;5.07;3.60;;;6.90;99.90;;;;;;5028406;28;20526;-68
2023/11/22 10:35:43;;;;;;;3.53;3.03;;;6.90;99.90;;;;;;5028601;28;20492;-69
2023/11/22 10:38:10;;;;;;;4.10;3.10;;;6.90;99.90;;;;;;5027868;28;20884;-68
2023/11/22 10:40:39;;;;;;;3.73;2.80;;;6.90;99.90;;;;;;5029491;28;20913;-68
2023/11/22 10:43:07;;;;;;;3.10;2.80;;;7.00;99.90;;;;;;5028045;28;21662;-68
2023/11/22 10:45:34;;;;;;;2.60;2.40;;;7.10;99.90;;;;;;5028772;28;20801;-69
2023/11/22 10:48:03;;;;;;;4.17;2.80;;;7.10;99.90;;;;;;5026195;28;20770;-68
2023/11/22 10:50:29;;;;;;;3.60;2.63;;;7.10;99.90;;;;;;5027341;28;20533;-68
2023/11/22 10:53:00;;;;;;;3.10;2.63;;;7.20;99.90;;;;;;5028946;28;20523;-68
2023/11/22 10:55:32;;;;;;;5.33;3.50;;;7.20;99.90;;;;;;5030920;28;20583;-68
2023/11/22 10:58:02;;;;;;;3.00;2.50;;;7.20;99.90;;;;;;5028945;28;21004;-68
2023/11/22 11:00:32;;;;;;;2.70;2.47;;;7.20;99.90;;;;;;5025975;28;20431;-69
2023/11/22 11:03:11;;;;;;;3.43;3.13;;;7.20;99.90;;;;;;5028524;28;20503;-69
2023/11/22 11:05:41;;;;;;;3.53;2.23;;;7.10;99.90;;;;;;5033702;28;20432;-68
2023/11/22 11:08:17;;;;;;;3.50;2.43;;;7.10;99.90;;;;;;5028322;28;20511;-68
2023/11/22 11:10:47;;;;;;;3.70;2.27;;;7.00;99.90;;;;;;5032105;28;20470;-68
2023/11/22 11:13:13;;;;;;;4.20;2.90;;;7.00;99.90;;;;;;5045154;28;20848;-69
2023/11/22 11:15:40;;;;;;;3.27;2.67;;;7.00;99.90;;;;;;5032587;28;20955;-69
2023/11/22 11:18:15;;;;;;;6.00;2.87;;;7.10;99.90;;;;;;5032078;28;20428;-68
2023/11/22 11:20:56;;;;;;;4.30;3.00;;;7.10;99.90;;;;;;5033292;28;20481;-69
2023/11/22 11:23:27;;;;;;;3.00;2.50;;;7.20;99.90;;;;;;5030994;28;20690;-68
2023/11/22 11:25:57;;;;;;;3.17;2.50;;;7.20;99.90;;;;;;5035676;28;20874;-68
2023/11/22 11:28:27;;;;;;;2.93;2.27;;;7.30;99.90;;;;;;5034036;28;21015;-69
2023/11/22 11:30:56;;;;;;;3.37;2.97;;;7.30;99.90;;;;;;5034859;28;20435;-69
2023/11/22 11:33:33;;;;;;;3.67;3.20;;;7.40;99.90;;;;;;5031220;28;20447;-69
2023/11/22 11:36:03;;;;;;;3.50;2.60;;;7.40;99.90;;;;;;5037145;28;20464;-69
2023/11/22 11:38:35;;;;;;;3.23;2.93;;;7.20;99.90;;;;;;5032429;28;20924;-69
2023/11/22 11:41:11;;;;;;;6.40;2.90;;;7.30;99.90;;;;;;5030569;28;20736;-69
2023/11/22 11:43:45;;;;;;;8.47;2.90;;;7.30;99.90;;;;;;5029416;28;20428;-69
2023/11/22 11:46:12;;;;;;;7.53;2.60;;;7.40;99.90;;;;;;5030583;28;20432;-68
2023/11/22 11:48:38;;;;;;;3.90;2.90;;;7.40;99.90;;;;;;5045831;28;20786;-69
2023/11/22 11:51:03;;;;;;;4.33;2.80;;;7.50;99.90;;;;;;5031117;28;20433;-69
2023/11/22 11:53:31;;;;;;;2.80;2.37;;;7.50;99.90;;;;;;5031706;28;20190;-69
2023/11/22 11:55:58;;;;;;;3.47;3.13;;;7.60;99.90;;;;;;5046170;28;20708;-69
2023/11/22 11:58:23;;;;;;;3.80;2.40;;;7.70;99.90;;;;;;5031372;28;20473;-69
2023/11/22 12:00:54;;;;;;;4.40;3.50;;;7.70;99.90;;;;;;5031799;28;20428;-69
2023/11/22 12:03:20;;;;;;;3.37;2.80;;;7.70;99.90;;;;;;5029731;28;20601;-69
2023/11/22 12:05:50;;;;;;;4.47;3.03;;;7.70;99.90;;;;;;5032058;28;20865;-69
2023/11/22 12:08:17;;;;;;;5.23;2.87;;;7.60;99.90;;;;;;5031324;28;21922;-69
2023/11/22 12:10:43;;;;;;;3.87;3.03;;;7.50;99.90;;;;;;5031489;28;20494;-68
2023/11/22 12:13:09;;;;;;;3.63;2.80;;;7.30;99.90;;;;;;5029091;28;20464;-69
2023/11/22 12:15:35;;;;;;;2.90;2.60;;;7.20;99.90;;;;;;5031793;28;20765;-68
2023/11/22 12:18:02;;;;;;;3.80;2.83;;;7.20;99.90;;;;;;5031107;28;20420;-69
2023/11/22 12:20:31;;;;;;;3.23;2.53;;;7.30;99.90;;;;;;5029956;28;21013;-68
2023/11/22 12:23:00;;;;;;;3.70;3.23;;;7.20;99.90;;;;;;5032134;28;20530;-68
2023/11/22 12:25:30;;;;;;;5.17;3.03;;;7.20;99.90;;;;;;5032617;28;20954;-68
2023/11/22 12:27:56;;;;;;;5.63;4.00;;;7.40;99.90;;;;;;5034487;28;20482;-68
2023/11/22 12:30:31;;;;;;;6.30;4.00;;;7.40;99.90;;;;;;5031263;28;20556;-68
2023/11/22 12:33:00;;;;;;;4.00;3.00;;;7.50;99.90;;;;;;5020034;28;20433;-68
2023/11/22 12:35:25;;;;;;;5.30;3.73;;;7.50;99.90;;;;;;5030560;28;20491;-68
2023/11/22 12:37:54;;;;;;;4.67;3.40;;;7.40;99.90;;;;;;5044688;28;20428;-68
2023/11/22 12:40:20;;;;;;;4.10;3.70;;;7.40;99.90;;;;;;5032379;28;20415;-68
2023/11/22 12:42:50;;;;;;;3.93;3.07;;;7.40;99.90;;;;;;5030178;28;20960;-68
2023/11/22 12:45:20;;;;;;;3.33;3.03;;;7.40;99.90;;;;;;5032572;28;20506;-68
2023/11/22 12:47:47;;;;;;;4.63;3.40;;;7.30;99.90;;;;;;5030582;28;20437;-68
2023/11/22 12:50:32;;;;;;;3.63;2.97;;;7.20;99.90;;;;;;5032391;28;20541;-68
2023/11/22 12:52:59;;;;;;;3.37;2.77;;;7.20;99.90;;;;;;5030129;28;20471;-68
2023/11/22 12:55:24;;;;;;;4.40;3.70;;;7.20;99.90;;;;;;5030072;28;20475;-68